sensor_id;sensor_type;location;lat;lon;timestamp;P1;durP1;ratioP1;P2;durP2;ratioP2
11287;SDS011;5700;50.996;7.044;2023-02-01T00:00:08;15.20;;;6.38;;
11287;SDS011;5700;50.996;7.044;2023-02-01T00:03:10;18.45;;;6.47;;
11287;SDS011;5700;50.996;7.044;2023-02-01T00:06:12;13.23;;;5.47;;
11287;SDS011;5700;50.996;7.044;2023-02-01T00:09:15;13.20;;;5.97;;
11287;SDS011;5700;50.996;7.044;2023-02-01T00:12:17;16.55;;;5.93;;
11287;SDS011;5700;50.996;7.044;2023-02-01T00:15:18;15.82;;;5.20;;
11287;SDS011;5700;50.996;7.044;2023-02-01T00:18:20;12.07;;;4.78;;
11287;SDS011;5700;50.996;7.044;2023-02-01T00:21:22;13.30;;;5.65;;
11287;SDS011;5700;50.996;7.044;2023-02-01T00:24:24;12.13;;;5.57;;
11287;SDS011;5700;50.996;7.044;2023-02-01T00:27:26;13.88;;;5.75;;
11287;SDS011;5700;50.996;7.044;2023-02-01T00:30:27;16.73;;;4.95;;
11287;SDS011;5700;50.996;7.044;2023-02-01T00:33:29;18.90;;;5.63;;
11287;SDS011;5700;50.996;7.044;2023-02-01T00:36:31;21.10;;;6.07;;
11287;SDS011;5700;50.996;7.044;2023-02-01T00:39:34;11.32;;;5.05;;
11287;SDS011;5700;50.996;7.044;2023-02-01T00:42:35;13.57;;;5.57;;
11287;SDS011;5700;50.996;7.044;2023-02-01T00:45:37;16.27;;;5.35;;
11287;SDS011;5700;50.996;7.044;2023-02-01T00:48:39;15.85;;;5.32;;
11287;SDS011;5700;50.996;7.044;2023-02-01T00:51:40;14.55;;;5.03;;
11287;SDS011;5700;50.996;7.044;2023-02-01T00:54:43;15.43;;;5.65;;
11287;SDS011;5700;50.996;7.044;2023-02-01T00:57:44;13.35;;;5.00;;
11287;SDS011;5700;50.996;7.044;2023-02-01T01:00:46;12.57;;;4.53;;
11287;SDS011;5700;50.996;7.044;2023-02-01T01:03:49;17.40;;;4.78;;
11287;SDS011;5700;50.996;7.044;2023-02-01T01:06:52;19.20;;;5.40;;
11287;SDS011;5700;50.996;7.044;2023-02-01T01:09:54;18.10;;;4.22;;
11287;SDS011;5700;50.996;7.044;2023-02-01T01:12:56;15.13;;;4.13;;
11287;SDS011;5700;50.996;7.044;2023-02-01T01:15:59;12.40;;;3.90;;
11287;SDS011;5700;50.996;7.044;2023-02-01T01:19:02;9.93;;;3.58;;
11287;SDS011;5700;50.996;7.044;2023-02-01T01:22:03;12.38;;;3.22;;
11287;SDS011;5700;50.996;7.044;2023-02-01T01:25:07;10.95;;;3.63;;
11287;SDS011;5700;50.996;7.044;2023-02-01T01:28:08;9.52;;;2.92;;
11287;SDS011;5700;50.996;7.044;2023-02-01T01:31:10;10.35;;;3.53;;
11287;SDS011;5700;50.996;7.044;2023-02-01T01:34:11;12.35;;;3.17;;
11287;SDS011;5700;50.996;7.044;2023-02-01T01:37:14;16.67;;;3.72;;
11287;SDS011;5700;50.996;7.044;2023-02-01T01:40:17;9.30;;;3.42;;
11287;SDS011;5700;50.996;7.044;2023-02-01T01:43:19;10.80;;;3.08;;
11287;SDS011;5700;50.996;7.044;2023-02-01T01:46:23;11.75;;;3.28;;
11287;SDS011;5700;50.996;7.044;2023-02-01T01:49:25;12.82;;;2.97;;
11287;SDS011;5700;50.996;7.044;2023-02-01T01:52:27;11.45;;;3.33;;
11287;SDS011;5700;50.996;7.044;2023-02-01T01:55:31;8.02;;;2.60;;
11287;SDS011;5700;50.996;7.044;2023-02-01T01:58:33;16.25;;;3.10;;
11287;SDS011;5700;50.996;7.044;2023-02-01T02:01:35;11.02;;;2.60;;
11287;SDS011;5700;50.996;7.044;2023-02-01T02:04:37;10.48;;;2.42;;
11287;SDS011;5700;50.996;7.044;2023-02-01T02:07:40;8.52;;;2.42;;
11287;SDS011;5700;50.996;7.044;2023-02-01T02:10:44;8.38;;;2.60;;
11287;SDS011;5700;50.996;7.044;2023-02-01T02:14:00;10.48;;;2.45;;
11287;SDS011;5700;50.996;7.044;2023-02-01T02:17:04;9.60;;;2.95;;
11287;SDS011;5700;50.996;7.044;2023-02-01T02:20:20;11.32;;;2.95;;
11287;SDS011;5700;50.996;7.044;2023-02-01T02:23:40;10.95;;;2.60;;
11287;SDS011;5700;50.996;7.044;2023-02-01T02:27:02;12.20;;;2.92;;
11287;SDS011;5700;50.996;7.044;2023-02-01T02:30:30;11.55;;;2.60;;
11287;SDS011;5700;50.996;7.044;2023-02-01T02:33:41;14.48;;;3.13;;
11287;SDS011;5700;50.996;7.044;2023-02-01T02:36:51;12.27;;;2.67;;
11287;SDS011;5700;50.996;7.044;2023-02-01T02:39:58;11.73;;;2.50;;
11287;SDS011;5700;50.996;7.044;2023-02-01T02:43:08;10.85;;;3.08;;
11287;SDS011;5700;50.996;7.044;2023-02-01T02:46:27;14.73;;;2.97;;
11287;SDS011;5700;50.996;7.044;2023-02-01T02:49:49;10.90;;;2.50;;
11287;SDS011;5700;50.996;7.044;2023-02-01T02:53:15;7.00;;;2.20;;
11287;SDS011;5700;50.996;7.044;2023-02-01T02:56:33;18.00;;;2.53;;
11287;SDS011;5700;50.996;7.044;2023-02-01T02:59:50;15.57;;;3.20;;
11287;SDS011;5700;50.996;7.044;2023-02-01T03:03:06;7.15;;;2.70;;
11287;SDS011;5700;50.996;7.044;2023-02-01T03:06:23;11.75;;;2.92;;
11287;SDS011;5700;50.996;7.044;2023-02-01T03:09:27;9.82;;;3.08;;
11287;SDS011;5700;50.996;7.044;2023-02-01T03:12:32;13.63;;;3.40;;
11287;SDS011;5700;50.996;7.044;2023-02-01T03:15:51;14.90;;;3.20;;
11287;SDS011;5700;50.996;7.044;2023-02-01T03:18:57;12.40;;;3.75;;
11287;SDS011;5700;50.996;7.044;2023-02-01T03:22:02;10.65;;;3.42;;
11287;SDS011;5700;50.996;7.044;2023-02-01T03:25:07;11.07;;;3.75;;
11287;SDS011;5700;50.996;7.044;2023-02-01T03:28:11;13.30;;;3.40;;
11287;SDS011;5700;50.996;7.044;2023-02-01T03:31:12;11.38;;;2.72;;
11287;SDS011;5700;50.996;7.044;2023-02-01T03:34:14;9.48;;;2.85;;
11287;SDS011;5700;50.996;7.044;2023-02-01T03:37:17;16.02;;;4.38;;
11287;SDS011;5700;50.996;7.044;2023-02-01T03:40:22;10.02;;;3.53;;
11287;SDS011;5700;50.996;7.044;2023-02-01T03:43:25;10.70;;;3.58;;
11287;SDS011;5700;50.996;7.044;2023-02-01T03:46:31;17.77;;;3.10;;
11287;SDS011;5700;50.996;7.044;2023-02-01T03:49:35;11.35;;;3.80;;
11287;SDS011;5700;50.996;7.044;2023-02-01T03:52:42;14.57;;;3.53;;
11287;SDS011;5700;50.996;7.044;2023-02-01T03:55:45;12.40;;;3.47;;
11287;SDS011;5700;50.996;7.044;2023-02-01T03:58:47;13.80;;;3.28;;
11287;SDS011;5700;50.996;7.044;2023-02-01T04:01:58;13.13;;;3.85;;
11287;SDS011;5700;50.996;7.044;2023-02-01T04:05:00;10.13;;;3.80;;
11287;SDS011;5700;50.996;7.044;2023-02-01T04:08:03;16.08;;;3.63;;
11287;SDS011;5700;50.996;7.044;2023-02-01T04:11:05;10.68;;;3.55;;
11287;SDS011;5700;50.996;7.044;2023-02-01T04:14:07;7.53;;;2.90;;
11287;SDS011;5700;50.996;7.044;2023-02-01T04:17:09;13.00;;;3.22;;
11287;SDS011;5700;50.996;7.044;2023-02-01T04:20:10;9.18;;;2.83;;
11287;SDS011;5700;50.996;7.044;2023-02-01T04:23:13;13.27;;;3.38;;
11287;SDS011;5700;50.996;7.044;2023-02-01T04:26:15;11.27;;;3.08;;
11287;SDS011;5700;50.996;7.044;2023-02-01T04:29:17;14.20;;;4.05;;
11287;SDS011;5700;50.996;7.044;2023-02-01T04:32:18;14.80;;;2.95;;
11287;SDS011;5700;50.996;7.044;2023-02-01T04:35:20;14.82;;;3.63;;
11287;SDS011;5700;50.996;7.044;2023-02-01T04:38:23;14.55;;;3.28;;
11287;SDS011;5700;50.996;7.044;2023-02-01T04:41:24;13.15;;;3.45;;
11287;SDS011;5700;50.996;7.044;2023-02-01T04:44:26;12.80;;;3.33;;
11287;SDS011;5700;50.996;7.044;2023-02-01T04:47:27;16.13;;;3.95;;
11287;SDS011;5700;50.996;7.044;2023-02-01T04:50:29;12.45;;;3.20;;
11287;SDS011;5700;50.996;7.044;2023-02-01T04:53:31;11.88;;;3.20;;
11287;SDS011;5700;50.996;7.044;2023-02-01T04:56:33;15.95;;;3.33;;
11287;SDS011;5700;50.996;7.044;2023-02-01T04:59:34;13.15;;;2.70;;
11287;SDS011;5700;50.996;7.044;2023-02-01T05:02:36;8.30;;;2.70;;
11287;SDS011;5700;50.996;7.044;2023-02-01T05:05:37;11.30;;;3.42;;
11287;SDS011;5700;50.996;7.044;2023-02-01T05:08:40;10.80;;;3.17;;
11287;SDS011;5700;50.996;7.044;2023-02-01T05:11:41;11.38;;;2.67;;
11287;SDS011;5700;50.996;7.044;2023-02-01T05:14:57;10.43;;;3.00;;
11287;SDS011;5700;50.996;7.044;2023-02-01T05:17:58;9.60;;;2.78;;
11287;SDS011;5700;50.996;7.044;2023-02-01T05:21:00;9.43;;;3.00;;
11287;SDS011;5700;50.996;7.044;2023-02-01T05:24:03;8.32;;;2.55;;
11287;SDS011;5700;50.996;7.044;2023-02-01T05:27:14;10.30;;;2.45;;
11287;SDS011;5700;50.996;7.044;2023-02-01T05:30:16;12.30;;;2.88;;
11287;SDS011;5700;50.996;7.044;2023-02-01T05:33:17;13.43;;;3.13;;
11287;SDS011;5700;50.996;7.044;2023-02-01T05:36:19;10.40;;;2.45;;
11287;SDS011;5700;50.996;7.044;2023-02-01T05:39:21;16.30;;;2.88;;
11287;SDS011;5700;50.996;7.044;2023-02-01T05:42:23;17.35;;;2.78;;
11287;SDS011;5700;50.996;7.044;2023-02-01T05:45:24;11.50;;;2.50;;
11287;SDS011;5700;50.996;7.044;2023-02-01T05:48:26;5.88;;;1.60;;
11287;SDS011;5700;50.996;7.044;2023-02-01T05:51:27;19.45;;;2.95;;
11287;SDS011;5700;50.996;7.044;2023-02-01T05:54:30;5.90;;;2.28;;
11287;SDS011;5700;50.996;7.044;2023-02-01T05:57:31;4.65;;;2.00;;
11287;SDS011;5700;50.996;7.044;2023-02-01T06:00:33;8.38;;;1.92;;
11287;SDS011;5700;50.996;7.044;2023-02-01T06:03:34;16.38;;;2.20;;
11287;SDS011;5700;50.996;7.044;2023-02-01T06:06:36;5.47;;;1.98;;
11287;SDS011;5700;50.996;7.044;2023-02-01T06:09:39;9.43;;;2.00;;
11287;SDS011;5700;50.996;7.044;2023-02-01T06:12:40;9.95;;;1.95;;
11287;SDS011;5700;50.996;7.044;2023-02-01T06:15:42;9.07;;;2.10;;
11287;SDS011;5700;50.996;7.044;2023-02-01T06:18:43;11.00;;;1.73;;
11287;SDS011;5700;50.996;7.044;2023-02-01T06:21:45;9.75;;;2.13;;
11287;SDS011;5700;50.996;7.044;2023-02-01T06:24:48;7.63;;;2.25;;
11287;SDS011;5700;50.996;7.044;2023-02-01T06:27:49;7.40;;;1.98;;
11287;SDS011;5700;50.996;7.044;2023-02-01T06:30:51;7.85;;;2.33;;
11287;SDS011;5700;50.996;7.044;2023-02-01T06:33:52;3.85;;;1.85;;
11287;SDS011;5700;50.996;7.044;2023-02-01T06:36:54;10.48;;;2.25;;
11287;SDS011;5700;50.996;7.044;2023-02-01T06:39:57;5.47;;;1.65;;
11287;SDS011;5700;50.996;7.044;2023-02-01T06:42:58;11.23;;;2.22;;
11287;SDS011;5700;50.996;7.044;2023-02-01T06:46:00;5.60;;;2.13;;
11287;SDS011;5700;50.996;7.044;2023-02-01T06:49:02;11.98;;;2.10;;
11287;SDS011;5700;50.996;7.044;2023-02-01T06:52:03;6.10;;;2.75;;
11287;SDS011;5700;50.996;7.044;2023-02-01T06:55:06;15.05;;;2.42;;
11287;SDS011;5700;50.996;7.044;2023-02-01T06:58:08;11.25;;;1.80;;
11287;SDS011;5700;50.996;7.044;2023-02-01T07:01:09;7.63;;;1.60;;
11287;SDS011;5700;50.996;7.044;2023-02-01T07:04:11;9.90;;;2.50;;
11287;SDS011;5700;50.996;7.044;2023-02-01T07:07:13;10.90;;;2.20;;
11287;SDS011;5700;50.996;7.044;2023-02-01T07:10:16;11.88;;;2.72;;
11287;SDS011;5700;50.996;7.044;2023-02-01T07:13:18;7.25;;;2.00;;
11287;SDS011;5700;50.996;7.044;2023-02-01T07:16:20;10.68;;;2.25;;
11287;SDS011;5700;50.996;7.044;2023-02-01T07:19:21;7.43;;;2.47;;
11287;SDS011;5700;50.996;7.044;2023-02-01T07:22:23;7.85;;;2.22;;
11287;SDS011;5700;50.996;7.044;2023-02-01T07:25:25;5.90;;;1.63;;
11287;SDS011;5700;50.996;7.044;2023-02-01T07:28:28;7.72;;;2.20;;
11287;SDS011;5700;50.996;7.044;2023-02-01T07:31:30;12.82;;;2.65;;
11287;SDS011;5700;50.996;7.044;2023-02-01T07:34:31;11.82;;;2.42;;
11287;SDS011;5700;50.996;7.044;2023-02-01T07:37:33;14.25;;;3.00;;
11287;SDS011;5700;50.996;7.044;2023-02-01T07:40:36;9.45;;;2.45;;
11287;SDS011;5700;50.996;7.044;2023-02-01T07:43:37;7.38;;;1.98;;
11287;SDS011;5700;50.996;7.044;2023-02-01T07:46:39;9.82;;;2.10;;
11287;SDS011;5700;50.996;7.044;2023-02-01T07:49:40;10.25;;;2.50;;
11287;SDS011;5700;50.996;7.044;2023-02-01T07:52:42;17.30;;;3.00;;
11287;SDS011;5700;50.996;7.044;2023-02-01T07:55:44;14.45;;;3.33;;
11287;SDS011;5700;50.996;7.044;2023-02-01T07:58:48;9.32;;;2.70;;
11287;SDS011;5700;50.996;7.044;2023-02-01T08:01:49;13.15;;;2.88;;
11287;SDS011;5700;50.996;7.044;2023-02-01T08:04:51;8.57;;;2.60;;
11287;SDS011;5700;50.996;7.044;2023-02-01T08:07:52;8.10;;;2.63;;
11287;SDS011;5700;50.996;7.044;2023-02-01T08:10:58;15.43;;;3.42;;
11287;SDS011;5700;50.996;7.044;2023-02-01T08:13:59;9.60;;;2.55;;
11287;SDS011;5700;50.996;7.044;2023-02-01T08:17:01;8.35;;;2.08;;
11287;SDS011;5700;50.996;7.044;2023-02-01T08:20:02;15.60;;;3.40;;
11287;SDS011;5700;50.996;7.044;2023-02-01T08:23:07;9.57;;;2.15;;
11287;SDS011;5700;50.996;7.044;2023-02-01T08:26:11;11.45;;;2.70;;
11287;SDS011;5700;50.996;7.044;2023-02-01T08:29:14;11.77;;;2.25;;
11287;SDS011;5700;50.996;7.044;2023-02-01T08:32:15;13.88;;;3.10;;
11287;SDS011;5700;50.996;7.044;2023-02-01T08:35:17;12.40;;;3.08;;
11287;SDS011;5700;50.996;7.044;2023-02-01T08:38:18;12.68;;;3.47;;
11287;SDS011;5700;50.996;7.044;2023-02-01T08:41:22;14.35;;;3.13;;
11287;SDS011;5700;50.996;7.044;2023-02-01T08:44:24;10.32;;;2.75;;
11287;SDS011;5700;50.996;7.044;2023-02-01T08:47:25;7.95;;;2.78;;
11287;SDS011;5700;50.996;7.044;2023-02-01T08:50:27;14.82;;;2.60;;
11287;SDS011;5700;50.996;7.044;2023-02-01T08:53:28;7.47;;;2.38;;
11287;SDS011;5700;50.996;7.044;2023-02-01T08:56:31;10.40;;;2.30;;
11287;SDS011;5700;50.996;7.044;2023-02-01T08:59:32;9.48;;;2.17;;
11287;SDS011;5700;50.996;7.044;2023-02-01T09:02:34;8.55;;;2.42;;
11287;SDS011;5700;50.996;7.044;2023-02-01T09:05:35;13.70;;;2.53;;
11287;SDS011;5700;50.996;7.044;2023-02-01T09:08:37;9.50;;;2.15;;
11287;SDS011;5700;50.996;7.044;2023-02-01T09:11:40;15.27;;;2.42;;
11287;SDS011;5700;50.996;7.044;2023-02-01T09:14:42;15.88;;;2.20;;
11287;SDS011;5700;50.996;7.044;2023-02-01T09:17:43;22.02;;;2.92;;
11287;SDS011;5700;50.996;7.044;2023-02-01T09:20:45;9.57;;;2.38;;
11287;SDS011;5700;50.996;7.044;2023-02-01T09:23:47;9.15;;;2.55;;
11287;SDS011;5700;50.996;7.044;2023-02-01T09:26:50;12.88;;;2.95;;
11287;SDS011;5700;50.996;7.044;2023-02-01T09:29:52;16.63;;;2.65;;
11287;SDS011;5700;50.996;7.044;2023-02-01T09:32:54;12.75;;;2.58;;
11287;SDS011;5700;50.996;7.044;2023-02-01T09:35:56;9.15;;;2.97;;
11287;SDS011;5700;50.996;7.044;2023-02-01T09:38:58;8.07;;;2.38;;
11287;SDS011;5700;50.996;7.044;2023-02-01T09:42:02;14.30;;;2.00;;
11287;SDS011;5700;50.996;7.044;2023-02-01T09:45:14;12.80;;;3.17;;
11287;SDS011;5700;50.996;7.044;2023-02-01T09:48:21;9.52;;;2.95;;
11287;SDS011;5700;50.996;7.044;2023-02-01T09:51:26;19.65;;;3.22;;
11287;SDS011;5700;50.996;7.044;2023-02-01T09:54:34;13.10;;;2.28;;
11287;SDS011;5700;50.996;7.044;2023-02-01T09:57:44;15.48;;;3.03;;
11287;SDS011;5700;50.996;7.044;2023-02-01T10:00:51;10.43;;;2.17;;
11287;SDS011;5700;50.996;7.044;2023-02-01T10:03:56;11.00;;;1.90;;
11287;SDS011;5700;50.996;7.044;2023-02-01T10:07:04;5.63;;;2.15;;
11287;SDS011;5700;50.996;7.044;2023-02-01T10:10:13;11.32;;;2.55;;
11287;SDS011;5700;50.996;7.044;2023-02-01T10:13:23;15.23;;;3.03;;
11287;SDS011;5700;50.996;7.044;2023-02-01T10:16:35;12.68;;;2.50;;
11287;SDS011;5700;50.996;7.044;2023-02-01T10:19:39;7.68;;;2.15;;
11287;SDS011;5700;50.996;7.044;2023-02-01T10:22:45;17.15;;;2.75;;
11287;SDS011;5700;50.996;7.044;2023-02-01T10:25:49;12.23;;;2.92;;
11287;SDS011;5700;50.996;7.044;2023-02-01T10:28:56;14.40;;;3.10;;
11287;SDS011;5700;50.996;7.044;2023-02-01T10:31:59;10.90;;;2.55;;
11287;SDS011;5700;50.996;7.044;2023-02-01T10:35:04;13.48;;;2.53;;
11287;SDS011;5700;50.996;7.044;2023-02-01T10:38:13;6.72;;;2.38;;
11287;SDS011;5700;50.996;7.044;2023-02-01T10:41:20;15.50;;;3.03;;
11287;SDS011;5700;50.996;7.044;2023-02-01T10:44:26;12.73;;;3.47;;
11287;SDS011;5700;50.996;7.044;2023-02-01T10:47:28;8.23;;;2.42;;
11287;SDS011;5700;50.996;7.044;2023-02-01T10:50:33;6.10;;;1.98;;
11287;SDS011;5700;50.996;7.044;2023-02-01T10:53:38;12.30;;;2.78;;
11287;SDS011;5700;50.996;7.044;2023-02-01T10:56:43;10.48;;;2.22;;
11287;SDS011;5700;50.996;7.044;2023-02-01T10:59:46;16.85;;;2.35;;
11287;SDS011;5700;50.996;7.044;2023-02-01T11:02:48;5.55;;;2.10;;
11287;SDS011;5700;50.996;7.044;2023-02-01T11:05:51;8.75;;;2.10;;
11287;SDS011;5700;50.996;7.044;2023-02-01T11:08:53;8.32;;;1.88;;
11287;SDS011;5700;50.996;7.044;2023-02-01T11:11:57;5.70;;;2.03;;
11287;SDS011;5700;50.996;7.044;2023-02-01T11:15:03;11.30;;;3.15;;
11287;SDS011;5700;50.996;7.044;2023-02-01T11:18:15;7.93;;;2.20;;
11287;SDS011;5700;50.996;7.044;2023-02-01T11:21:18;7.20;;;2.70;;
11287;SDS011;5700;50.996;7.044;2023-02-01T11:24:21;9.50;;;2.53;;
11287;SDS011;5700;50.996;7.044;2023-02-01T11:27:24;11.65;;;2.40;;
11287;SDS011;5700;50.996;7.044;2023-02-01T11:30:30;8.40;;;2.80;;
11287;SDS011;5700;50.996;7.044;2023-02-01T11:33:33;11.88;;;3.42;;
11287;SDS011;5700;50.996;7.044;2023-02-01T11:36:37;12.50;;;3.17;;
11287;SDS011;5700;50.996;7.044;2023-02-01T11:39:39;18.20;;;2.47;;
11287;SDS011;5700;50.996;7.044;2023-02-01T11:42:52;10.48;;;2.45;;
11287;SDS011;5700;50.996;7.044;2023-02-01T11:45:57;8.82;;;2.13;;
11287;SDS011;5700;50.996;7.044;2023-02-01T11:49:23;8.35;;;2.70;;
11287;SDS011;5700;50.996;7.044;2023-02-01T11:52:37;15.48;;;2.22;;
11287;SDS011;5700;50.996;7.044;2023-02-01T11:55:49;10.82;;;2.75;;
11287;SDS011;5700;50.996;7.044;2023-02-01T11:59:01;12.57;;;2.35;;
11287;SDS011;5700;50.996;7.044;2023-02-01T12:02:15;6.55;;;2.28;;
11287;SDS011;5700;50.996;7.044;2023-02-01T12:05:31;9.30;;;2.25;;
11287;SDS011;5700;50.996;7.044;2023-02-01T12:08:48;9.95;;;2.20;;
11287;SDS011;5700;50.996;7.044;2023-02-01T12:11:59;8.90;;;2.30;;
11287;SDS011;5700;50.996;7.044;2023-02-01T12:15:16;9.13;;;2.15;;
11287;SDS011;5700;50.996;7.044;2023-02-01T12:18:30;8.80;;;2.65;;
11287;SDS011;5700;50.996;7.044;2023-02-01T12:21:41;11.77;;;1.98;;
11287;SDS011;5700;50.996;7.044;2023-02-01T12:24:52;14.70;;;2.08;;
11287;SDS011;5700;50.996;7.044;2023-02-01T12:28:10;8.05;;;2.10;;
11287;SDS011;5700;50.996;7.044;2023-02-01T12:31:21;12.98;;;2.55;;
11287;SDS011;5700;50.996;7.044;2023-02-01T12:37:54;11.20;;;2.28;;
11287;SDS011;5700;50.996;7.044;2023-02-01T12:41:06;7.97;;;2.20;;
11287;SDS011;5700;50.996;7.044;2023-02-01T12:44:18;6.90;;;1.75;;
11287;SDS011;5700;50.996;7.044;2023-02-01T12:47:27;10.02;;;2.53;;
11287;SDS011;5700;50.996;7.044;2023-02-01T12:50:33;4.93;;;1.90;;
11287;SDS011;5700;50.996;7.044;2023-02-01T12:53:42;7.82;;;1.85;;
11287;SDS011;5700;50.996;7.044;2023-02-01T12:56:46;7.45;;;1.98;;
11287;SDS011;5700;50.996;7.044;2023-02-01T12:59:51;6.55;;;2.25;;
11287;SDS011;5700;50.996;7.044;2023-02-01T13:02:59;11.38;;;2.65;;
11287;SDS011;5700;50.996;7.044;2023-02-01T13:06:06;7.53;;;2.58;;
11287;SDS011;5700;50.996;7.044;2023-02-01T13:09:15;5.85;;;2.05;;
11287;SDS011;5700;50.996;7.044;2023-02-01T13:12:21;8.23;;;1.38;;
11287;SDS011;5700;50.996;7.044;2023-02-01T13:15:27;11.13;;;1.80;;
11287;SDS011;5700;50.996;7.044;2023-02-01T13:18:32;7.20;;;2.08;;
11287;SDS011;5700;50.996;7.044;2023-02-01T13:21:39;8.60;;;2.22;;
11287;SDS011;5700;50.996;7.044;2023-02-01T13:24:42;5.38;;;1.85;;
11287;SDS011;5700;50.996;7.044;2023-02-01T13:27:46;8.60;;;2.50;;
11287;SDS011;5700;50.996;7.044;2023-02-01T13:30:53;6.00;;;2.08;;
11287;SDS011;5700;50.996;7.044;2023-02-01T13:37:34;12.60;;;2.35;;
11287;SDS011;5700;50.996;7.044;2023-02-01T13:40:45;12.20;;;2.85;;
11287;SDS011;5700;50.996;7.044;2023-02-01T13:43:48;11.27;;;2.30;;
11287;SDS011;5700;50.996;7.044;2023-02-01T13:46:51;9.85;;;2.53;;
11287;SDS011;5700;50.996;7.044;2023-02-01T13:49:57;10.25;;;2.78;;
11287;SDS011;5700;50.996;7.044;2023-02-01T13:53:04;8.98;;;2.80;;
11287;SDS011;5700;50.996;7.044;2023-02-01T13:56:13;13.40;;;2.95;;
11287;SDS011;5700;50.996;7.044;2023-02-01T14:02:45;10.63;;;2.80;;
11287;SDS011;5700;50.996;7.044;2023-02-01T14:12:43;9.88;;;2.72;;
11287;SDS011;5700;50.996;7.044;2023-02-01T14:15:53;10.20;;;3.08;;
11287;SDS011;5700;50.996;7.044;2023-02-01T14:19:19;8.55;;;3.60;;
11287;SDS011;5700;50.996;7.044;2023-02-01T14:25:39;8.75;;;2.13;;
11287;SDS011;5700;50.996;7.044;2023-02-01T14:28:43;4.30;;;1.42;;
11287;SDS011;5700;50.996;7.044;2023-02-01T14:31:51;12.63;;;1.63;;
11287;SDS011;5700;50.996;7.044;2023-02-01T14:34:55;2.80;;;1.20;;
11287;SDS011;5700;50.996;7.044;2023-02-01T14:37:59;11.13;;;3.08;;
11287;SDS011;5700;50.996;7.044;2023-02-01T14:41:12;8.45;;;2.55;;
11287;SDS011;5700;50.996;7.044;2023-02-01T14:44:28;5.88;;;1.80;;
11287;SDS011;5700;50.996;7.044;2023-02-01T14:47:33;8.02;;;1.88;;
11287;SDS011;5700;50.996;7.044;2023-02-01T14:50:35;5.80;;;1.70;;
11287;SDS011;5700;50.996;7.044;2023-02-01T14:53:40;6.18;;;1.77;;
11287;SDS011;5700;50.996;7.044;2023-02-01T14:56:44;10.95;;;2.25;;
11287;SDS011;5700;50.996;7.044;2023-02-01T14:59:46;12.70;;;2.13;;
11287;SDS011;5700;50.996;7.044;2023-02-01T15:02:50;7.10;;;1.40;;
11287;SDS011;5700;50.996;7.044;2023-02-01T15:05:55;7.35;;;1.83;;
11287;SDS011;5700;50.996;7.044;2023-02-01T15:08:58;8.77;;;1.80;;
11287;SDS011;5700;50.996;7.044;2023-02-01T15:12:03;6.93;;;1.63;;
11287;SDS011;5700;50.996;7.044;2023-02-01T15:15:10;5.95;;;1.50;;
11287;SDS011;5700;50.996;7.044;2023-02-01T15:18:16;7.78;;;2.00;;
11287;SDS011;5700;50.996;7.044;2023-02-01T15:21:19;8.43;;;2.28;;
11287;SDS011;5700;50.996;7.044;2023-02-01T15:24:22;7.30;;;2.33;;
11287;SDS011;5700;50.996;7.044;2023-02-01T15:27:25;6.97;;;2.05;;
11287;SDS011;5700;50.996;7.044;2023-02-01T15:30:29;8.43;;;1.65;;
11287;SDS011;5700;50.996;7.044;2023-02-01T15:33:31;8.45;;;1.85;;
11287;SDS011;5700;50.996;7.044;2023-02-01T15:36:34;8.15;;;2.33;;
11287;SDS011;5700;50.996;7.044;2023-02-01T15:39:37;9.38;;;1.95;;
11287;SDS011;5700;50.996;7.044;2023-02-01T15:43:11;6.78;;;1.73;;
11287;SDS011;5700;50.996;7.044;2023-02-01T15:46:13;6.75;;;1.65;;
11287;SDS011;5700;50.996;7.044;2023-02-01T15:49:20;10.73;;;2.17;;
11287;SDS011;5700;50.996;7.044;2023-02-01T15:52:27;11.20;;;2.00;;
11287;SDS011;5700;50.996;7.044;2023-02-01T15:55:33;9.50;;;2.42;;
11287;SDS011;5700;50.996;7.044;2023-02-01T15:58:40;9.55;;;2.05;;
11287;SDS011;5700;50.996;7.044;2023-02-01T16:01:43;10.32;;;2.20;;
11287;SDS011;5700;50.996;7.044;2023-02-01T16:04:46;7.40;;;1.85;;
11287;SDS011;5700;50.996;7.044;2023-02-01T16:07:54;8.82;;;2.10;;
11287;SDS011;5700;50.996;7.044;2023-02-01T16:10:59;7.22;;;1.52;;
11287;SDS011;5700;50.996;7.044;2023-02-01T16:14:03;14.48;;;2.20;;
11287;SDS011;5700;50.996;7.044;2023-02-01T16:17:05;7.45;;;2.10;;
11287;SDS011;5700;50.996;7.044;2023-02-01T16:20:06;7.00;;;2.35;;
11287;SDS011;5700;50.996;7.044;2023-02-01T16:23:10;8.68;;;1.85;;
11287;SDS011;5700;50.996;7.044;2023-02-01T16:26:11;5.80;;;1.77;;
11287;SDS011;5700;50.996;7.044;2023-02-01T16:29:14;4.82;;;1.60;;
11287;SDS011;5700;50.996;7.044;2023-02-01T16:32:16;5.78;;;1.38;;
11287;SDS011;5700;50.996;7.044;2023-02-01T16:35:21;8.32;;;1.80;;
11287;SDS011;5700;50.996;7.044;2023-02-01T16:38:24;12.85;;;2.13;;
11287;SDS011;5700;50.996;7.044;2023-02-01T16:41:26;7.07;;;1.63;;
11287;SDS011;5700;50.996;7.044;2023-02-01T16:44:30;13.65;;;2.08;;
11287;SDS011;5700;50.996;7.044;2023-02-01T16:47:31;5.47;;;1.83;;
11287;SDS011;5700;50.996;7.044;2023-02-01T16:50:33;7.45;;;1.90;;
11287;SDS011;5700;50.996;7.044;2023-02-01T16:53:35;7.97;;;1.88;;
11287;SDS011;5700;50.996;7.044;2023-02-01T16:56:36;11.52;;;2.08;;
11287;SDS011;5700;50.996;7.044;2023-02-01T16:59:40;10.88;;;2.38;;
11287;SDS011;5700;50.996;7.044;2023-02-01T17:02:42;10.77;;;1.95;;
11287;SDS011;5700;50.996;7.044;2023-02-01T17:05:46;10.65;;;3.13;;
11287;SDS011;5700;50.996;7.044;2023-02-01T17:08:50;14.18;;;3.25;;
11287;SDS011;5700;50.996;7.044;2023-02-01T17:11:52;13.60;;;2.13;;
11287;SDS011;5700;50.996;7.044;2023-02-01T17:14:55;12.07;;;2.53;;
11287;SDS011;5700;50.996;7.044;2023-02-01T17:17:57;11.60;;;2.40;;
11287;SDS011;5700;50.996;7.044;2023-02-01T17:21:02;9.13;;;2.13;;
11287;SDS011;5700;50.996;7.044;2023-02-01T17:24:04;14.80;;;2.92;;
11287;SDS011;5700;50.996;7.044;2023-02-01T17:27:06;9.50;;;2.35;;
11287;SDS011;5700;50.996;7.044;2023-02-01T17:30:09;8.82;;;1.80;;
11287;SDS011;5700;50.996;7.044;2023-02-01T17:33:15;11.93;;;3.17;;
11287;SDS011;5700;50.996;7.044;2023-02-01T17:36:19;7.97;;;2.13;;
11287;SDS011;5700;50.996;7.044;2023-02-01T17:39:21;11.20;;;2.22;;
11287;SDS011;5700;50.996;7.044;2023-02-01T17:42:36;20.67;;;6.35;;
11287;SDS011;5700;50.996;7.044;2023-02-01T17:45:40;16.63;;;4.90;;
11287;SDS011;5700;50.996;7.044;2023-02-01T17:48:46;10.75;;;2.63;;
11287;SDS011;5700;50.996;7.044;2023-02-01T17:51:48;13.02;;;2.60;;
11287;SDS011;5700;50.996;7.044;2023-02-01T17:54:49;7.68;;;2.08;;
11287;SDS011;5700;50.996;7.044;2023-02-01T17:57:52;10.65;;;2.72;;
11287;SDS011;5700;50.996;7.044;2023-02-01T18:00:55;14.77;;;4.50;;
11287;SDS011;5700;50.996;7.044;2023-02-01T18:03:57;15.18;;;4.22;;
11287;SDS011;5700;50.996;7.044;2023-02-01T18:06:59;10.77;;;3.40;;
11287;SDS011;5700;50.996;7.044;2023-02-01T18:10:00;15.45;;;4.15;;
11287;SDS011;5700;50.996;7.044;2023-02-01T18:13:02;7.93;;;3.40;;
11287;SDS011;5700;50.996;7.044;2023-02-01T18:16:05;13.65;;;3.92;;
11287;SDS011;5700;50.996;7.044;2023-02-01T18:19:07;11.98;;;3.28;;
11287;SDS011;5700;50.996;7.044;2023-02-01T18:22:11;12.55;;;4.22;;
11287;SDS011;5700;50.996;7.044;2023-02-01T18:25:16;17.23;;;4.90;;
11287;SDS011;5700;50.996;7.044;2023-02-01T18:28:20;16.58;;;2.80;;
11287;SDS011;5700;50.996;7.044;2023-02-01T18:31:23;16.17;;;2.33;;
11287;SDS011;5700;50.996;7.044;2023-02-01T18:34:26;11.57;;;2.50;;
11287;SDS011;5700;50.996;7.044;2023-02-01T18:37:29;7.85;;;2.20;;
11287;SDS011;5700;50.996;7.044;2023-02-01T18:40:31;8.93;;;2.80;;
11287;SDS011;5700;50.996;7.044;2023-02-01T18:43:34;11.60;;;2.95;;
11287;SDS011;5700;50.996;7.044;2023-02-01T18:46:36;14.63;;;2.38;;
11287;SDS011;5700;50.996;7.044;2023-02-01T18:49:38;11.25;;;2.33;;
11287;SDS011;5700;50.996;7.044;2023-02-01T18:52:39;13.57;;;2.15;;
11287;SDS011;5700;50.996;7.044;2023-02-01T18:55:41;12.30;;;2.78;;
11287;SDS011;5700;50.996;7.044;2023-02-01T18:58:42;7.43;;;2.30;;